createdAt,value
2019-05-06T00:00:35.257Z,6.30
2019-05-06T00:03:05.215Z,6.30
2019-05-06T00:05:34.955Z,6.30
2019-05-06T00:08:04.859Z,6.20
2019-05-06T00:10:36.189Z,6.20
2019-05-06T00:13:06.320Z,6.20
2019-05-06T00:15:36.278Z,6.20
2019-05-06T00:18:06.136Z,6.10
2019-05-06T00:20:36.185Z,6.10
2019-05-06T00:23:14.090Z,6.10
2019-05-06T00:26:01.098Z,6.00
2019-05-06T00:28:36.316Z,6.00
2019-05-06T00:31:12.709Z,6.00
2019-05-06T00:33:58.520Z,5.90
2019-05-06T00:36:28.310Z,5.90
2019-05-06T00:39:01.813Z,5.90
2019-05-06T00:41:36.367Z,5.90
2019-05-06T00:44:04.847Z,5.80
2019-05-06T00:46:34.613Z,5.80
2019-05-06T00:49:04.300Z,5.90
2019-05-06T00:51:34.101Z,5.90
2019-05-06T00:54:10.686Z,5.90
2019-05-06T00:56:40.429Z,5.90
2019-05-06T00:59:10.135Z,6.00
2019-05-06T01:01:39.852Z,6.00
2019-05-06T01:04:09.585Z,6.10
2019-05-06T01:06:39.372Z,6.20
2019-05-06T01:09:14.076Z,6.30
2019-05-06T01:11:45.995Z,6.40
2019-05-06T01:14:21.227Z,6.50
2019-05-06T01:16:51.056Z,6.60
2019-05-06T01:19:20.833Z,6.70
2019-05-06T01:21:50.562Z,6.80
2019-05-06T01:24:20.374Z,6.90
2019-05-06T01:26:50.167Z,7.00
2019-05-06T01:29:19.963Z,7.10
2019-05-06T01:31:49.710Z,7.20
2019-05-06T01:34:19.434Z,7.30
2019-05-06T01:36:49.150Z,7.40
2019-05-06T01:39:40.693Z,7.50
2019-05-06T01:42:21.057Z,7.60
2019-05-06T01:44:50.835Z,7.70
2019-05-06T01:47:20.526Z,7.80
2019-05-06T01:49:50.227Z,7.80
2019-05-06T01:52:19.942Z,7.90
2019-05-06T01:54:49.986Z,7.90
2019-05-06T01:57:19.684Z,7.90
2019-05-06T01:59:49.394Z,8.00
2019-05-06T02:02:19.106Z,8.00
2019-05-06T02:04:48.871Z,8.00
2019-05-06T02:07:18.614Z,8.00
2019-05-06T02:09:48.331Z,8.00
2019-05-06T02:12:18.049Z,7.90
2019-05-06T02:14:47.766Z,7.90
2019-05-06T02:17:17.524Z,7.80
2019-05-06T02:19:47.270Z,7.80
2019-05-06T02:22:24.183Z,7.80
2019-05-06T02:25:08.757Z,7.70
2019-05-06T02:27:38.472Z,7.70
2019-05-06T02:30:28.780Z,7.60
2019-05-06T02:33:04.628Z,7.50
2019-05-06T02:35:41.761Z,7.40
2019-05-06T02:38:28.130Z,7.40
2019-05-06T02:40:57.369Z,7.30
2019-05-06T02:43:27.092Z,7.20
2019-05-06T02:45:57.024Z,7.10
2019-05-06T02:48:37.525Z,6.90
2019-05-06T02:51:13.602Z,6.90
2019-05-06T02:53:43.435Z,6.70
2019-05-06T02:56:13.529Z,6.60
2019-05-06T02:58:43.807Z,6.50
2019-05-06T03:01:13.747Z,6.40
2019-05-06T03:03:43.882Z,6.40
2019-05-06T03:06:13.677Z,6.30
2019-05-06T03:08:43.794Z,6.20
2019-05-06T03:11:13.922Z,6.10
2019-05-06T03:13:44.099Z,6.00
2019-05-06T03:16:14.409Z,5.90
2019-05-06T03:18:44.136Z,5.90
2019-05-06T03:21:36.707Z,5.90
2019-05-06T03:24:23.489Z,5.80
2019-05-06T03:26:56.913Z,5.70
2019-05-06T03:29:25.579Z,5.70
2019-05-06T03:31:56.812Z,5.60
2019-05-06T03:34:49.146Z,5.60
2019-05-06T03:36:58.205Z,5.60
2019-05-06T03:39:27.909Z,5.50
2019-05-06T03:41:57.691Z,5.50
2019-05-06T03:44:27.351Z,5.50
2019-05-06T03:47:17.128Z,5.40
2019-05-06T03:49:50.065Z,5.40
2019-05-06T03:52:19.572Z,5.30
2019-05-06T03:54:53.089Z,5.30
2019-05-06T03:57:24.063Z,5.30
2019-05-06T03:59:54.889Z,5.20
2019-05-06T04:02:24.651Z,5.20
2019-05-06T04:04:56.585Z,5.20
2019-05-06T04:07:26.660Z,5.30
2019-05-06T04:10:15.640Z,5.30
2019-05-06T04:12:48.079Z,5.30
2019-05-06T04:15:18.309Z,5.40
2019-05-06T04:17:54.804Z,5.40
2019-05-06T04:20:55.746Z,5.40
2019-05-06T04:23:33.770Z,5.40
2019-05-06T04:26:25.602Z,5.50
2019-05-06T04:28:55.348Z,5.50
2019-05-06T04:31:26.243Z,5.50
2019-05-06T04:34:09.927Z,5.60
2019-05-06T04:36:27.713Z,5.70
2019-05-06T04:38:57.496Z,5.70
2019-05-06T04:41:27.211Z,5.80
2019-05-06T04:43:57.256Z,5.90
2019-05-06T04:46:27.208Z,6.00
2019-05-06T04:48:57.978Z,6.10
2019-05-06T04:51:27.737Z,6.10
2019-05-06T04:53:57.559Z,6.20
2019-05-06T04:56:27.557Z,6.30
2019-05-06T04:58:58.291Z,6.40
2019-05-06T05:01:27.974Z,6.50
2019-05-06T05:03:57.919Z,6.50
2019-05-06T05:06:27.696Z,6.60
2019-05-06T05:09:17.570Z,6.60
2019-05-06T05:11:53.322Z,6.70
2019-05-06T05:14:32.805Z,6.80
2019-05-06T05:17:24.373Z,6.80
2019-05-06T05:19:54.484Z,6.90
2019-05-06T05:22:25.206Z,7.00
2019-05-06T05:24:56.071Z,7.10
2019-05-06T05:27:25.863Z,7.10
2019-05-06T05:29:55.664Z,7.10
2019-05-06T05:32:26.951Z,7.10
2019-05-06T05:34:56.944Z,7.20
2019-05-06T05:37:26.898Z,7.30
2019-05-06T05:39:57.144Z,7.40
2019-05-06T05:42:42.397Z,7.50
2019-05-06T05:45:12.930Z,7.60
2019-05-06T05:47:42.825Z,7.60
2019-05-06T05:50:19.000Z,7.70
2019-05-06T05:52:49.012Z,7.80
2019-05-06T05:55:18.667Z,7.90
2019-05-06T05:57:49.443Z,7.80
2019-05-06T06:00:22.471Z,7.80
2019-05-06T06:02:53.046Z,8.00
2019-05-06T06:05:23.004Z,8.10
2019-05-06T06:07:53.083Z,8.20
2019-05-06T06:10:28.565Z,8.40
2019-05-06T06:12:58.368Z,8.50
2019-05-06T06:15:56.300Z,8.50
2019-05-06T06:18:33.449Z,8.60
2019-05-06T06:21:37.473Z,8.60
2019-05-06T06:24:16.192Z,8.60
2019-05-06T06:26:46.229Z,8.60
2019-05-06T06:29:15.995Z,8.60
2019-05-06T06:31:54.017Z,8.80
2019-05-06T06:34:42.732Z,8.90
2019-05-06T06:37:30.051Z,9.00
2019-05-06T06:40:02.445Z,9.10
2019-05-06T06:42:33.571Z,9.10
2019-05-06T06:45:03.879Z,9.20
2019-05-06T06:47:33.608Z,9.20
2019-05-06T06:50:04.446Z,9.30
2019-05-06T06:52:34.146Z,9.30
2019-05-06T06:55:03.999Z,9.40
2019-05-06T06:57:49.054Z,9.50
2019-05-06T07:00:37.598Z,9.50
2019-05-06T07:03:12.317Z,9.70
2019-05-06T07:05:46.882Z,9.80
2019-05-06T07:08:31.361Z,9.80
2019-05-06T07:10:48.526Z,9.90
2019-05-06T07:13:19.386Z,10.00
2019-05-06T07:15:49.223Z,10.20
2019-05-06T07:18:19.228Z,10.40
2019-05-06T07:21:06.115Z,10.60
2019-05-06T07:23:54.946Z,10.60
2019-05-06T07:26:27.830Z,10.50
2019-05-06T07:28:57.566Z,10.60
2019-05-06T07:31:27.627Z,10.80
2019-05-06T07:33:57.391Z,10.90
2019-05-06T07:36:27.128Z,10.90
2019-05-06T07:38:57.205Z,11.00
2019-05-06T07:41:36.899Z,11.20
2019-05-06T07:44:22.259Z,11.40
2019-05-06T07:46:57.124Z,11.30
2019-05-06T07:49:26.865Z,11.30
2019-05-06T07:51:56.519Z,11.00
2019-05-06T07:54:26.218Z,10.70
2019-05-06T07:56:55.945Z,10.70
2019-05-06T07:59:25.719Z,10.80
2019-05-06T08:01:55.661Z,10.90
2019-05-06T08:04:25.347Z,11.10
2019-05-06T08:06:55.086Z,11.40
2019-05-06T08:09:24.868Z,11.30
2019-05-06T08:11:54.616Z,11.20
2019-05-06T08:14:26.551Z,11.30
2019-05-06T08:17:02.438Z,11.40
2019-05-06T08:19:33.604Z,11.70
2019-05-06T08:22:07.262Z,12.00
2019-05-06T08:24:36.955Z,12.10
2019-05-06T08:27:07.107Z,12.00
2019-05-06T08:29:36.867Z,12.10
2019-05-06T08:32:06.749Z,12.10
2019-05-06T08:34:36.712Z,12.10
2019-05-06T08:37:34.575Z,12.00
2019-05-06T08:40:05.428Z,11.90
2019-05-06T08:42:35.114Z,11.80
2019-05-06T08:45:07.208Z,12.00
2019-05-06T08:47:37.290Z,12.20
2019-05-06T08:50:23.818Z,12.50
2019-05-06T08:52:58.759Z,12.60
2019-05-06T08:55:34.102Z,12.40
2019-05-06T08:58:04.129Z,12.30
2019-05-06T09:00:38.175Z,12.20
2019-05-06T09:03:07.853Z,12.20
2019-05-06T09:05:37.541Z,12.30
2019-05-06T09:08:07.228Z,12.40
2019-05-06T09:10:36.891Z,12.40
2019-05-06T09:13:06.630Z,12.30
2019-05-06T09:15:36.359Z,12.10
2019-05-06T09:18:06.025Z,12.20
2019-05-06T09:20:36.066Z,12.20
2019-05-06T09:23:05.802Z,12.30
2019-05-06T09:25:35.469Z,12.40
2019-05-06T09:28:14.132Z,12.50
2019-05-06T09:30:48.141Z,12.70
2019-05-06T09:33:22.510Z,13.00
2019-05-06T09:35:52.910Z,13.20
2019-05-06T09:38:22.905Z,13.20
2019-05-06T09:40:52.677Z,13.10
2019-05-06T09:43:22.472Z,13.20
2019-05-06T09:45:53.006Z,13.40
2019-05-06T09:48:42.492Z,13.60
2019-05-06T09:51:13.130Z,13.70
2019-05-06T09:54:09.480Z,13.70
2019-05-06T09:56:44.994Z,13.60
2019-05-06T09:59:14.682Z,13.70
2019-05-06T10:01:44.422Z,14.00
2019-05-06T10:04:14.189Z,14.20
2019-05-06T10:06:55.737Z,14.20
2019-05-06T10:09:16.582Z,14.30
2019-05-06T10:11:46.611Z,14.10
2019-05-06T10:14:16.593Z,14.10
2019-05-06T10:16:46.317Z,14.10
2019-05-06T10:19:16.053Z,13.80
2019-05-06T10:21:45.812Z,13.70
2019-05-06T10:24:15.490Z,13.70
2019-05-06T10:26:52.193Z,14.00
2019-05-06T10:29:39.075Z,14.10
2019-05-06T10:32:26.507Z,14.30
2019-05-06T10:34:56.464Z,14.80
2019-05-06T10:37:42.894Z,15.10
2019-05-06T10:40:22.617Z,15.10
2019-05-06T10:43:06.249Z,15.10
2019-05-06T10:45:36.150Z,15.20
2019-05-06T10:48:05.882Z,15.20
2019-05-06T10:50:40.370Z,14.90
2019-05-06T10:53:18.323Z,14.70
2019-05-06T10:55:53.364Z,14.60
2019-05-06T10:58:22.941Z,14.40
2019-05-06T11:01:03.477Z,14.30
2019-05-06T11:03:33.156Z,14.10
2019-05-06T11:06:03.161Z,14.00
2019-05-06T11:08:32.900Z,14.20
2019-05-06T11:11:15.018Z,14.40
2019-05-06T11:13:34.042Z,14.70
2019-05-06T11:16:03.775Z,15.20
2019-05-06T11:18:33.683Z,16.40
2019-05-06T11:21:03.675Z,16.90
2019-05-06T11:23:33.915Z,17.20
2019-05-06T11:26:04.077Z,17.00
2019-05-06T11:28:42.934Z,16.90
2019-05-06T11:31:33.260Z,16.30
2019-05-06T11:34:22.145Z,15.90
2019-05-06T11:37:12.090Z,15.40
2019-05-06T11:39:43.053Z,15.80
2019-05-06T11:42:27.451Z,16.80
2019-05-06T11:44:44.651Z,17.70
2019-05-06T11:47:14.393Z,18.00
2019-05-06T11:49:44.319Z,17.50
2019-05-06T11:52:14.162Z,16.90
2019-05-06T11:54:44.196Z,16.40
2019-05-06T11:57:13.958Z,16.00
2019-05-06T11:59:43.714Z,15.90
2019-05-06T12:02:16.830Z,16.60
2019-05-06T12:04:46.611Z,18.00
2019-05-06T12:07:16.457Z,18.70
2019-05-06T12:09:46.541Z,19.40
2019-05-06T12:12:16.237Z,20.70
2019-05-06T12:14:45.944Z,21.10
2019-05-06T12:17:15.610Z,21.40
2019-05-06T12:19:45.305Z,21.10
2019-05-06T12:22:15.020Z,20.40
2019-05-06T12:24:44.749Z,19.80
2019-05-06T12:27:33.431Z,19.20
2019-05-06T12:30:05.382Z,18.40
2019-05-06T12:32:43.457Z,18.00
2019-05-06T12:35:13.621Z,17.50
2019-05-06T12:37:44.993Z,17.20
2019-05-06T12:40:15.500Z,16.90
2019-05-06T12:42:53.450Z,16.50
2019-05-06T12:45:36.662Z,16.30
2019-05-06T12:48:14.161Z,16.30
2019-05-06T12:50:43.948Z,16.30
2019-05-06T12:53:13.652Z,16.50
2019-05-06T12:55:43.326Z,16.50
2019-05-06T12:58:13.821Z,16.70
2019-05-06T13:00:45.045Z,16.60
2019-05-06T13:03:15.065Z,16.40
2019-05-06T13:05:44.825Z,16.40
2019-05-06T13:08:20.113Z,16.10
2019-05-06T13:10:45.940Z,15.80
2019-05-06T13:13:15.682Z,15.70
2019-05-06T13:15:45.531Z,15.70
2019-05-06T13:18:15.220Z,15.80
2019-05-06T13:20:49.399Z,15.90
2019-05-06T13:23:28.655Z,16.10
2019-05-06T13:25:58.391Z,16.40
2019-05-06T13:28:30.664Z,16.80
2019-05-06T13:31:15.855Z,17.20
2019-05-06T13:33:43.232Z,19.40
2019-05-06T13:36:13.165Z,22.10
2019-05-06T13:38:43.395Z,24.10
2019-05-06T13:41:13.099Z,24.90
2019-05-06T13:43:47.538Z,25.70
2019-05-06T13:46:26.326Z,25.60
2019-05-06T13:49:13.911Z,24.80
2019-05-06T13:51:52.849Z,23.90
2019-05-06T13:54:22.765Z,25.30
2019-05-06T13:56:52.390Z,26.50
2019-05-06T13:59:22.047Z,25.90
2019-05-06T14:02:09.162Z,24.80
2019-05-06T14:04:38.912Z,24.80
2019-05-06T14:07:08.597Z,25.50
2019-05-06T14:09:40.078Z,25.50
2019-05-06T14:12:09.714Z,24.70
2019-05-06T14:14:39.364Z,23.70
2019-05-06T14:17:09.294Z,22.90
2019-05-06T14:19:38.953Z,22.00
2019-05-06T14:22:08.631Z,21.30
2019-05-06T14:24:40.094Z,20.40
2019-05-06T14:27:11.386Z,19.60
2019-05-06T14:29:53.821Z,19.10
2019-05-06T14:32:23.789Z,18.80
2019-05-06T14:34:53.441Z,19.00
2019-05-06T14:37:23.428Z,20.90
2019-05-06T14:39:59.205Z,24.10
2019-05-06T14:42:26.672Z,27.60
2019-05-06T14:44:56.353Z,30.00
2019-05-06T14:47:28.192Z,31.50
2019-05-06T14:49:57.911Z,30.40
2019-05-06T14:52:27.616Z,27.70
2019-05-06T14:55:16.366Z,24.70
2019-05-06T14:57:46.061Z,22.90
2019-05-06T15:00:18.990Z,22.00
2019-05-06T15:02:48.747Z,21.40
2019-05-06T15:05:19.153Z,20.80
2019-05-06T15:07:48.841Z,20.30
2019-05-06T15:10:23.260Z,19.70
2019-05-06T15:12:53.273Z,18.90
2019-05-06T15:15:23.607Z,18.00
2019-05-06T15:17:53.436Z,17.10
2019-05-06T15:20:23.257Z,16.40
2019-05-06T15:22:53.118Z,15.90
2019-05-06T15:25:23.003Z,15.30
2019-05-06T15:27:53.258Z,14.90
2019-05-06T15:30:33.479Z,14.80
2019-05-06T15:33:02.821Z,14.80
2019-05-06T15:35:52.528Z,14.70
2019-05-06T15:38:25.238Z,14.50
2019-05-06T15:40:55.283Z,14.30
2019-05-06T15:43:25.025Z,14.20
2019-05-06T15:45:54.752Z,14.00
2019-05-06T15:48:24.498Z,13.70
2019-05-06T15:50:54.203Z,13.50
2019-05-06T15:53:23.996Z,13.30
2019-05-06T15:55:53.701Z,13.20
2019-05-06T15:58:23.393Z,13.10
2019-05-06T16:00:53.357Z,13.00
2019-05-06T16:03:23.342Z,12.90
2019-05-06T16:05:55.250Z,12.80
2019-05-06T16:08:24.740Z,12.70
2019-05-06T16:10:58.311Z,12.70
2019-05-06T16:13:26.257Z,12.50
2019-05-06T16:15:55.942Z,12.40
2019-05-06T16:18:25.757Z,12.30
2019-05-06T16:21:14.758Z,12.20
2019-05-06T16:23:54.875Z,12.10
2019-05-06T16:26:24.316Z,12.00
2019-05-06T16:28:54.307Z,11.90
2019-05-06T16:31:24.750Z,12.00
2019-05-06T16:33:54.592Z,12.00
2019-05-06T16:36:43.617Z,11.90
2019-05-06T16:39:13.290Z,12.00
2019-05-06T16:41:44.733Z,11.90
2019-05-06T16:44:14.906Z,11.90
2019-05-06T16:46:44.670Z,11.90
2019-05-06T16:49:14.370Z,11.90
2019-05-06T16:51:44.334Z,11.90
2019-05-06T16:54:14.313Z,11.80
2019-05-06T16:56:53.362Z,11.90
2019-05-06T16:59:23.802Z,11.90
2019-05-06T17:01:53.680Z,11.90
2019-05-06T17:04:34.982Z,11.80
2019-05-06T17:07:04.671Z,11.70
2019-05-06T17:09:35.425Z,11.50
2019-05-06T17:12:05.597Z,11.40
2019-05-06T17:14:35.669Z,11.30
2019-05-06T17:17:05.442Z,11.30
2019-05-06T17:19:35.211Z,11.20
2019-05-06T17:22:05.116Z,11.20
2019-05-06T17:24:34.804Z,11.20
2019-05-06T17:27:04.695Z,11.10
2019-05-06T17:29:59.483Z,11.00
2019-05-06T17:32:33.466Z,11.00
2019-05-06T17:35:03.426Z,11.00
2019-05-06T17:37:52.695Z,10.90
2019-05-06T17:40:23.607Z,10.90
2019-05-06T17:42:53.525Z,11.10
2019-05-06T17:45:43.029Z,11.70
2019-05-06T17:48:29.001Z,12.10
2019-05-06T17:51:15.564Z,12.20
2019-05-06T17:53:48.572Z,12.10
2019-05-06T17:56:18.633Z,11.90
2019-05-06T17:58:48.329Z,11.80
2019-05-06T18:01:23.288Z,11.60
2019-05-06T18:03:52.988Z,11.40
2019-05-06T18:06:22.999Z,11.20
2019-05-06T18:08:53.035Z,11.00
2019-05-06T18:11:22.722Z,10.90
2019-05-06T18:13:52.474Z,10.80
2019-05-06T18:16:22.389Z,10.80
2019-05-06T18:18:52.418Z,10.70
2019-05-06T18:21:22.950Z,10.70
2019-05-06T18:23:52.905Z,10.60
2019-05-06T18:26:23.099Z,10.50
2019-05-06T18:28:52.902Z,10.50
2019-05-06T18:31:22.618Z,10.40
2019-05-06T18:33:52.888Z,10.40
2019-05-06T18:36:22.903Z,10.40
2019-05-06T18:38:53.194Z,10.40
2019-05-06T18:41:23.605Z,10.40
2019-05-06T18:43:53.761Z,10.30
2019-05-06T18:46:23.474Z,10.30
2019-05-06T18:48:53.200Z,10.30
2019-05-06T18:51:22.923Z,10.20
2019-05-06T18:53:52.679Z,10.10
2019-05-06T18:56:22.608Z,10.00
2019-05-06T18:58:53.120Z,10.00
2019-05-06T19:01:23.438Z,10.00
2019-05-06T19:04:03.399Z,9.90
2019-05-06T19:06:33.505Z,9.80
2019-05-06T19:09:22.841Z,9.80
2019-05-06T19:11:54.587Z,9.80
2019-05-06T19:14:24.530Z,9.80
2019-05-06T19:16:55.314Z,9.80
2019-05-06T19:19:25.167Z,9.80
2019-05-06T19:21:54.962Z,9.70
2019-05-06T19:24:24.705Z,9.70
2019-05-06T19:26:54.681Z,9.60
2019-05-06T19:29:24.349Z,9.60
2019-05-06T19:31:54.350Z,9.60
2019-05-06T19:34:24.154Z,9.50
2019-05-06T19:36:53.814Z,9.50
2019-05-06T19:39:23.514Z,9.40
2019-05-06T19:41:53.599Z,9.40
2019-05-06T19:44:23.322Z,9.40
2019-05-06T19:46:53.407Z,9.40
2019-05-06T19:49:23.860Z,9.40
2019-05-06T19:51:53.944Z,9.40
2019-05-06T19:54:23.663Z,9.30
2019-05-06T19:56:53.365Z,9.20
2019-05-06T19:59:23.145Z,9.20
2019-05-06T20:01:52.963Z,9.10
2019-05-06T20:04:23.231Z,9.10
2019-05-06T20:07:02.331Z,9.00
2019-05-06T20:09:52.207Z,8.90
2019-05-06T20:12:58.449Z,8.90
2019-05-06T20:15:52.410Z,8.90
2019-05-06T20:18:22.103Z,8.90
2019-05-06T20:20:52.853Z,8.90
2019-05-06T20:23:23.264Z,8.80
2019-05-06T20:25:52.945Z,8.90
2019-05-06T20:28:22.873Z,8.90
2019-05-06T20:30:53.027Z,8.90
2019-05-06T20:33:22.778Z,8.90
2019-05-06T20:35:52.696Z,9.00
2019-05-06T20:38:23.240Z,9.00
2019-05-06T20:40:53.029Z,9.00
2019-05-06T20:43:24.071Z,9.00
2019-05-06T20:45:53.765Z,8.90
2019-05-06T20:48:23.691Z,8.90
2019-05-06T20:50:53.327Z,8.80
2019-05-06T20:53:23.362Z,8.90
2019-05-06T20:55:53.375Z,8.80
2019-05-06T20:58:23.172Z,8.80
2019-05-06T21:00:52.894Z,8.80
2019-05-06T21:03:22.537Z,8.80
2019-05-06T21:05:52.218Z,8.80
2019-05-06T21:08:22.230Z,8.80
2019-05-06T21:10:52.951Z,8.80
2019-05-06T21:13:31.971Z,8.70
2019-05-06T21:15:54.333Z,8.70
2019-05-06T21:18:24.044Z,8.70
2019-05-06T21:20:53.713Z,8.70
2019-05-06T21:23:23.383Z,8.80
2019-05-06T21:25:53.047Z,8.80
2019-05-06T21:28:23.824Z,8.70
2019-05-06T21:30:53.645Z,8.70
2019-05-06T21:33:23.411Z,8.70
2019-05-06T21:35:53.298Z,8.60
2019-05-06T21:38:23.288Z,8.60
2019-05-06T21:40:53.035Z,8.60
2019-05-06T21:43:22.909Z,8.60
2019-05-06T21:45:54.169Z,8.50
2019-05-06T21:48:24.113Z,8.50
2019-05-06T21:50:54.018Z,8.50
2019-05-06T21:53:23.804Z,8.50
2019-05-06T21:55:53.466Z,8.40
2019-05-06T21:58:23.304Z,8.40
2019-05-06T22:01:02.162Z,8.30
2019-05-06T22:03:32.773Z,8.30
2019-05-06T22:06:02.671Z,8.20
2019-05-06T22:08:32.944Z,8.10
2019-05-06T22:11:03.208Z,8.10
2019-05-06T22:13:33.445Z,8.00
2019-05-06T22:16:04.898Z,8.00
2019-05-06T22:18:34.725Z,8.00
2019-05-06T22:21:09.209Z,8.00
2019-05-06T22:23:51.489Z,7.90
2019-05-06T22:26:23.061Z,8.00
2019-05-06T22:28:53.390Z,7.90
2019-05-06T22:31:24.629Z,7.90
2019-05-06T22:33:54.747Z,7.90
2019-05-06T22:36:24.675Z,7.90
2019-05-06T22:38:54.472Z,7.90
2019-05-06T22:41:25.413Z,7.80
2019-05-06T22:43:55.390Z,7.80
2019-05-06T22:46:25.198Z,7.80
2019-05-06T22:48:54.987Z,7.80
2019-05-06T22:51:25.038Z,7.70
2019-05-06T22:53:55.141Z,7.80
2019-05-06T22:56:25.207Z,7.80
2019-05-06T22:58:54.939Z,7.80
2019-05-06T23:01:43.225Z,7.90
2019-05-06T23:04:14.758Z,7.90
2019-05-06T23:06:44.458Z,7.90
2019-05-06T23:09:14.159Z,7.90
2019-05-06T23:11:43.852Z,8.00
2019-05-06T23:14:27.675Z,8.00
2019-05-06T23:16:45.016Z,8.10
2019-05-06T23:19:14.741Z,8.10
2019-05-06T23:21:44.456Z,8.10
2019-05-06T23:24:14.153Z,8.20
2019-05-06T23:26:44.105Z,8.20
2019-05-06T23:29:13.865Z,8.30
2019-05-06T23:31:43.842Z,8.30
2019-05-06T23:34:13.510Z,8.40
2019-05-06T23:37:22.537Z,8.40
2019-05-06T23:40:45.832Z,8.50
2019-05-06T23:44:09.821Z,8.50
2019-05-06T23:47:34.393Z,8.50
2019-05-06T23:50:58.266Z,8.50
2019-05-06T23:54:22.418Z,8.50
2019-05-06T23:56:52.126Z,8.50
2019-05-06T23:59:22.574Z,8.50
